Time;durP1;ratioP1;P1;durP2;ratioP2;P2;SDS_P1;SDS_P2;PMS_P1;PMS_P2;Temp;Humidity;BMP_temperature;BMP_pressure;BME280_temperature;BME280_humidity;BME280_pressure;Samples;Min_cycle;Max_cycle;Signal;HPM_P1;HPM_P2
2022/03/19 00:01:46;;;;;;;97.82;43.40;;;;;;;0.24;nan;102868.84;5099749;28;20052;-72
2022/03/19 00:04:12;;;;;;;99.57;43.95;;;;;;;0.18;nan;102877.81;5102040;28;20035;-71
2022/03/19 00:06:38;;;;;;;100.38;44.10;;;;;;;0.16;nan;102890.03;5120375;28;20039;-71
2022/03/19 00:09:06;;;;;;;95.70;43.47;;;;;;;0.01;nan;102866.84;5114619;28;20062;-71
2022/03/19 00:11:31;;;;;;;96.93;43.85;;;;;;;0.02;nan;102876.28;5118186;28;20032;-70
2022/03/19 00:13:57;;;;;;;91.40;40.50;;;;;;;-0.15;nan;102864.38;5116765;28;20028;-71
2022/03/19 00:16:22;;;;;;;98.97;40.88;;;;;;;-0.11;nan;102878.78;5094757;28;20548;-70
2022/03/19 00:18:48;;;;;;;89.70;41.00;;;;;;;-0.15;nan;102885.06;5091132;28;20032;-71
2022/03/19 00:21:14;;;;;;;91.50;40.72;;;;;;;-0.45;nan;102842.00;5106585;28;20065;-70
2022/03/19 00:23:40;;;;;;;91.65;40.55;;;;;;;-0.27;nan;102861.59;5101805;28;20032;-70
2022/03/19 00:26:07;;;;;;;89.88;40.28;;;;;;;-0.29;nan;102854.84;5103513;28;20027;-70
2022/03/19 00:28:33;;;;;;;89.32;39.92;;;;;;;-0.25;nan;102862.31;5088643;28;20031;-69
2022/03/19 00:30:58;;;;;;;88.82;38.63;;;;;;;-0.17;nan;102874.81;5100273;28;20032;-70
2022/03/19 00:33:24;;;;;;;87.07;38.63;;;;;;;-0.16;nan;102873.91;5106313;28;20031;-70
2022/03/19 00:35:49;;;;;;;86.35;38.20;;;;;;;-0.24;nan;102853.66;5095995;28;20032;-71
2022/03/19 00:38:16;;;;;;;80.47;36.85;;;;;;;-0.25;nan;102851.97;5099361;28;20032;-70
2022/03/19 00:40:43;;;;;;;87.38;39.58;;;;;;;-0.18;nan;102857.63;5103953;28;20210;-70
2022/03/19 00:43:09;;;;;;;98.25;41.67;;;;;;;-0.24;nan;102870.91;5113403;28;20038;-71
2022/03/19 00:45:34;;;;;;;118.70;48.67;;;;;;;-0.49;nan;102856.88;5105217;28;20111;-70
2022/03/19 00:48:00;;;;;;;125.50;49.65;;;;;;;-0.44;nan;102861.78;5098989;28;20495;-70
2022/03/19 00:50:25;;;;;;;116.68;47.42;;;;;;;-0.57;nan;102840.16;5102280;28;20104;-71
2022/03/19 00:52:51;;;;;;;221.10;75.78;;;;;;;-0.48;nan;102866.31;5108039;28;20088;-71
2022/03/19 00:55:16;;;;;;;223.15;79.70;;;;;;;-0.63;nan;102859.44;5096640;28;20381;-70
2022/03/19 00:57:44;;;;;;;203.80;77.88;;;;;;;-0.66;nan;102860.47;5088630;28;20138;-71
2022/03/19 01:00:12;;;;;;;260.67;92.93;;;;;;;-0.69;nan;102863.25;5103149;28;20040;-70
2022/03/19 01:02:39;;;;;;;228.40;81.13;;;;;;;-0.63;nan;102869.81;5090755;28;20032;-70
2022/03/19 01:05:06;;;;;;;139.55;56.97;;;;;;;-0.61;nan;102859.38;5094615;28;20039;-70
2022/03/19 01:07:31;;;;;;;128.98;53.88;;;;;;;-0.61;nan;102852.44;5107348;28;20032;-70
2022/03/19 01:09:56;;;;;;;125.75;52.47;;;;;;;-0.57;nan;102858.28;5099608;28;20638;-71
2022/03/19 01:12:22;;;;;;;105.90;47.53;;;;;;;-0.58;nan;102856.59;5108963;28;20070;-71
2022/03/19 01:14:47;;;;;;;114.72;46.25;;;;;;;-0.58;nan;102854.00;5100368;28;20074;-71
2022/03/19 01:17:13;;;;;;;116.00;46.53;;;;;;;-0.66;nan;102842.34;5104496;28;20027;-72
2022/03/19 01:19:53;;;;;;;102.03;44.08;;;;;;;-0.66;nan;102850.13;5109454;28;20595;-71
2022/03/19 01:22:21;;;;;;;111.50;46.28;;;;;;;-0.65;nan;102851.78;5108789;28;20118;-71
2022/03/19 01:24:47;;;;;;;103.55;43.35;;;;;;;-0.75;nan;102855.81;5103701;28;20088;-71
2022/03/19 01:27:13;;;;;;;95.45;44.03;;;;;;;-0.86;nan;102842.72;5098354;28;20036;-72
2022/03/19 01:29:38;;;;;;;101.45;42.15;;;;;;;-0.95;nan;102832.91;5088440;28;20085;-72
2022/03/19 01:32:04;;;;;;;98.93;43.92;;;;;;;-1.00;nan;102830.56;5086226;28;20084;-69
2022/03/19 01:34:30;;;;;;;97.15;42.25;;;;;;;-0.93;nan;102841.41;5101264;28;20035;-72
2022/03/19 01:36:55;;;;;;;94.93;41.53;;;;;;;-0.91;nan;102842.13;5097005;28;20531;-71
2022/03/19 01:39:21;;;;;;;93.82;43.63;;;;;;;-0.88;nan;102849.72;5098560;28;20035;-71
2022/03/19 01:41:46;;;;;;;103.05;43.15;;;;;;;-0.91;nan;102848.16;5104431;28;20550;-70
2022/03/19 01:44:22;;;;;;;102.53;45.05;;;;;;;-0.93;nan;102849.97;5101215;28;20093;-70
2022/03/19 01:46:58;;;;;;;107.25;44.75;;;;;;;-0.98;nan;102853.75;5090712;28;20040;-70
2022/03/19 01:49:24;;;;;;;111.25;46.03;;;;;;;-1.20;nan;102823.13;5101692;28;20039;-70
2022/03/19 01:51:50;;;;;;;115.40;47.55;;;;;;;-1.13;nan;102856.28;5089303;28;20036;-70
2022/03/19 01:54:15;;;;;;;113.47;47.97;;;;;;;-1.20;nan;102844.63;5099542;28;20544;-70
2022/03/19 01:56:42;;;;;;;117.55;48.17;;;;;;;-1.36;nan;102833.50;5097487;28;20107;-70
2022/03/19 01:59:08;;;;;;;106.05;43.78;;;;;;;-1.33;nan;102847.09;5107235;28;20027;-70
2022/03/19 02:01:34;;;;;;;95.07;40.72;;;;;;;-1.40;nan;102847.53;5105851;28;20388;-71
2022/03/19 02:04:00;;;;;;;89.63;39.58;;;;;;;-1.48;nan;102845.38;5101692;28;20027;-71
2022/03/19 02:06:26;;;;;;;93.00;38.92;;;;;;;-1.67;nan;102845.56;5086736;28;20043;-70
2022/03/19 02:08:53;;;;;;;92.93;38.17;;;;;;;-1.80;nan;102845.38;5085680;28;20085;-71
2022/03/19 02:11:20;;;;;;;87.65;37.67;;;;;;;-1.90;nan;102831.31;5108740;28;20132;-71
2022/03/19 02:13:46;;;;;;;86.03;37.47;;;;;;;-1.91;nan;102826.25;5100720;28;20024;-71
2022/03/19 02:16:12;;;;;;;90.47;38.25;;;;;;;-1.90;nan;102833.88;5100046;28;20084;-71
2022/03/19 02:18:37;;;;;;;93.38;39.65;;;;;;;-1.93;nan;102834.06;5109045;28;20031;-70
2022/03/19 02:21:03;;;;;;;96.07;39.72;;;;;;;-2.05;nan;102821.81;5102975;28;20032;-71
2022/03/19 02:26:12;;;;;;;102.18;40.95;;;;;;;-2.08;nan;102840.88;5099050;28;20031;-70
2022/03/19 02:28:38;;;;;;;99.85;42.95;;;;;;;-2.12;nan;102841.13;5102710;28;20477;-70
2022/03/19 02:31:04;;;;;;;102.10;44.17;;;;;;;-2.21;nan;102845.03;5103193;28;20035;-71
2022/03/19 02:33:30;;;;;;;106.32;45.45;;;;;;;-2.29;nan;102831.69;5076115;28;20027;-71
2022/03/19 02:35:55;;;;;;;109.18;43.67;;;;;;;-2.54;nan;102789.09;5103025;28;20039;-71
2022/03/19 02:38:21;;;;;;;107.05;43.75;;;;;;;-2.19;nan;102840.63;5108354;28;20047;-70
2022/03/19 02:40:46;;;;;;;101.50;44.25;;;;;;;-2.12;nan;102854.88;5106538;28;20421;-70
2022/03/19 02:43:11;;;;;;;105.25;43.53;;;;;;;-2.07;nan;102844.28;5109850;28;20385;-71
2022/03/19 02:45:37;;;;;;;103.28;42.75;;;;;;;-2.14;nan;102831.69;5090355;28;20032;-71
2022/03/19 02:48:02;;;;;;;96.40;41.58;;;;;;;-2.00;nan;102841.28;5100813;28;20046;-71
2022/03/19 02:50:37;;;;;;;104.72;41.28;;;;;;;-1.95;nan;102852.22;5102653;28;20521;-71
2022/03/19 02:53:10;;;;;;;93.05;39.33;;;;;;;-1.96;nan;102840.22;5101661;28;20036;-71
2022/03/19 02:55:38;;;;;;;86.82;38.22;;;;;;;-1.97;nan;102843.69;5093131;28;20038;-71
2022/03/19 02:58:06;;;;;;;96.88;38.72;;;;;;;-2.13;nan;102824.81;5103083;28;20681;-70
2022/03/19 03:00:32;;;;;;;87.55;36.00;;;;;;;-2.02;nan;102845.69;5086585;28;20055;-72
2022/03/19 03:03:00;;;;;;;86.22;37.67;;;;;;;-1.97;nan;102843.69;5091156;28;20043;-71
2022/03/19 03:05:25;;;;;;;85.22;36.63;;;;;;;-1.95;nan;102841.06;5104070;28;20039;-73
2022/03/19 03:07:51;;;;;;;77.88;34.53;;;;;;;-1.94;nan;102845.28;5102206;28;20043;-70
2022/03/19 03:10:17;;;;;;;78.28;34.17;;;;;;;-1.98;nan;102836.06;5091145;28;20047;-72
2022/03/19 03:12:42;;;;;;;81.30;33.83;;;;;;;-2.01;nan;102847.38;5105820;28;20086;-70
2022/03/19 03:15:09;;;;;;;77.72;33.70;;;;;;;-2.04;nan;102844.94;5114289;28;20035;-69
2022/03/19 03:17:35;;;;;;;87.10;34.67;;;;;;;-2.00;nan;102837.88;5113122;28;20498;-70
2022/03/19 03:20:02;;;;;;;73.90;33.67;;;;;;;-2.06;nan;102833.91;5100326;28;20070;-72
2022/03/19 03:22:29;;;;;;;76.30;34.13;;;;;;;-1.99;nan;102837.81;5103547;28;20489;-71
2022/03/19 03:24:54;;;;;;;71.07;31.75;;;;;;;-2.09;nan;102828.06;5107288;28;20031;-71
2022/03/19 03:27:21;;;;;;;64.80;29.55;;;;;;;-2.31;nan;102807.72;5103128;28;20096;-71
2022/03/19 03:29:46;;;;;;;62.30;28.63;;;;;;;-2.28;nan;102841.09;5088298;28;20054;-70
2022/03/19 03:32:12;;;;;;;68.82;28.95;;;;;;;-2.36;nan;102833.75;5104361;28;20062;-71
2022/03/19 03:34:38;;;;;;;61.90;28.38;;;;;;;-2.44;nan;102823.84;5097843;28;20046;-69
2022/03/19 03:37:04;;;;;;;60.85;27.63;;;;;;;-2.36;nan;102841.50;5097801;28;20062;-70
2022/03/19 03:39:30;;;;;;;61.72;28.42;;;;;;;-2.43;nan;102837.56;5101672;28;20110;-70
2022/03/19 03:41:55;;;;;;;70.13;29.15;;;;;;;-2.51;nan;102829.38;5090901;28;20462;-70
2022/03/19 03:44:20;;;;;;;60.28;27.10;;;;;;;-2.45;nan;102840.22;5091862;28;20023;-70
2022/03/19 03:46:46;;;;;;;63.13;26.73;;;;;;;-2.37;nan;102847.56;5093800;28;20497;-70
2022/03/19 03:49:13;;;;;;;61.80;26.88;;;;;;;-2.38;nan;102838.16;5108171;28;20042;-71
2022/03/19 03:51:39;;;;;;;62.45;27.33;;;;;;;-2.40;nan;102838.22;5094088;28;20147;-70
2022/03/19 03:54:06;;;;;;;60.03;27.27;;;;;;;-2.39;nan;102834.75;5107509;28;20844;-71
2022/03/19 03:56:31;;;;;;;58.10;25.98;;;;;;;-2.47;nan;102823.16;5104896;28;20042;-70
2022/03/19 03:58:57;;;;;;;59.45;26.60;;;;;;;-2.32;nan;102855.06;5107234;28;20114;-70
2022/03/19 04:01:22;;;;;;;63.58;28.23;;;;;;;-2.39;nan;102842.50;5087231;28;20048;-70
2022/03/19 04:03:48;;;;;;;59.05;26.73;;;;;;;-2.41;nan;102844.31;5092374;28;20163;-70
2022/03/19 04:06:14;;;;;;;65.75;28.63;;;;;;;-2.42;nan;102850.41;5092088;28;20119;-70
2022/03/19 04:08:39;;;;;;;66.05;27.77;;;;;;;-2.53;nan;102841.56;5090514;28;20118;-70
2022/03/19 04:11:05;;;;;;;67.50;28.40;;;;;;;-2.59;nan;102851.25;5085260;28;20070;-70
2022/03/19 04:13:30;;;;;;;68.15;28.75;;;;;;;-2.70;nan;102839.84;5090718;28;20033;-70
2022/03/19 04:15:55;;;;;;;66.32;29.00;;;;;;;-2.84;nan;102830.22;5078876;28;20500;-71
2022/03/19 04:18:21;;;;;;;63.33;29.35;;;;;;;-2.80;nan;102835.13;5091485;28;20032;-70
2022/03/19 04:20:46;;;;;;;66.93;28.20;;;;;;;-2.90;nan;102835.66;5089062;28;20070;-70
2022/03/19 04:23:12;;;;;;;68.80;29.30;;;;;;;-2.91;nan;102842.56;5082922;28;20050;-70
2022/03/19 04:25:37;;;;;;;65.13;29.52;;;;;;;-2.90;nan;102845.97;5073402;28;20047;-71
2022/03/19 04:28:03;;;;;;;68.18;29.60;;;;;;;-2.98;nan;102840.38;5090752;28;20044;-70
2022/03/19 04:30:29;;;;;;;64.93;28.85;;;;;;;-2.92;nan;102850.38;5089594;28;20040;-71
2022/03/19 04:32:57;;;;;;;62.45;28.65;;;;;;;-3.24;nan;102814.97;5079194;28;20486;-70
2022/03/19 04:38:11;;;;;;;55.47;23.58;;;;;;;-3.16;nan;102860.13;5076134;28;20101;-71
2022/03/19 04:40:38;;;;;;;54.83;23.35;;;;;;;-3.19;nan;102861.13;5080918;28;20108;-71
2022/03/19 04:43:04;;;;;;;49.20;21.80;;;;;;;-3.18;nan;102867.97;5073023;28;20035;-72
2022/03/19 04:45:30;;;;;;;48.90;21.65;;;;;;;-3.37;nan;102841.41;5090667;28;20032;-70
2022/03/19 04:47:56;;;;;;;45.97;20.38;;;;;;;-3.34;nan;102849.81;5083392;28;20043;-71
2022/03/19 04:50:22;;;;;;;42.83;20.55;;;;;;;-3.30;nan;102865.97;5088285;28;20116;-71
2022/03/19 04:52:49;;;;;;;43.30;20.52;;;;;;;-3.28;nan;102867.56;5090447;28;20032;-70
2022/03/19 04:55:15;;;;;;;46.15;20.30;;;;;;;-3.26;nan;102864.91;5089732;28;20152;-71
2022/03/19 04:57:40;;;;;;;45.05;20.02;;;;;;;-3.49;nan;102835.94;5085722;28;20089;-72
2022/03/19 05:00:09;;;;;;;44.03;20.92;;;;;;;-3.35;nan;102855.03;5090695;28;20047;-71
2022/03/19 05:02:35;;;;;;;47.38;19.95;;;;;;;-3.29;nan;102871.03;5104043;28;20059;-71
2022/03/19 05:05:00;;;;;;;46.70;19.60;;;;;;;-3.29;nan;102857.31;5095814;28;20098;-72
2022/03/19 05:07:27;;;;;;;42.58;19.30;;;;;;;-3.26;nan;102865.72;5094121;28;20534;-72
2022/03/19 05:12:40;;;;;;;44.75;19.23;;;;;;;-3.34;nan;102857.53;5095609;28;20036;-71
2022/03/19 05:15:09;;;;;;;40.38;18.25;;;;;;;-3.29;nan;102867.63;5095352;28;20059;-70
2022/03/19 05:17:35;;;;;;;46.92;19.15;;;;;;;-3.27;nan;102866.66;5096464;28;20477;-71
2022/03/19 05:20:01;;;;;;;41.85;18.33;;;;;;;-3.41;nan;102840.72;5103150;28;20093;-70
2022/03/19 05:22:29;;;;;;;41.90;18.92;;;;;;;-3.29;nan;102865.88;5086224;28;20033;-71
2022/03/19 05:24:55;;;;;;;39.42;17.73;;;;;;;-3.28;nan;102864.13;5094918;28;20527;-72
2022/03/19 05:27:22;;;;;;;40.00;19.35;;;;;;;-3.20;nan;102872.34;5078412;28;20622;-70
2022/03/19 05:29:48;;;;;;;37.35;18.08;;;;;;;-3.12;nan;102877.13;5101040;28;20125;-71
2022/03/19 05:32:14;;;;;;;39.30;17.52;;;;;;;-3.16;nan;102873.03;5096881;28;20465;-71
2022/03/19 05:34:40;;;;;;;45.80;18.88;;;;;;;-3.18;nan;102867.09;5102619;28;20375;-72
2022/03/19 05:37:06;;;;;;;34.47;16.15;;;;;;;-3.06;nan;102887.97;5082699;28;20038;-70
2022/03/19 05:39:33;;;;;;;37.80;17.45;;;;;;;-3.01;nan;102886.00;5100881;28;20057;-71
2022/03/19 05:41:58;;;;;;;37.30;17.70;;;;;;;-2.97;nan;102880.69;5107625;28;20115;-70
2022/03/19 05:44:24;;;;;;;41.97;17.08;;;;;;;-2.88;nan;102881.06;5099650;28;20123;-71
2022/03/19 05:46:50;;;;;;;41.17;18.27;;;;;;;-2.81;nan;102882.44;5099734;28;20636;-72
2022/03/19 05:49:16;;;;;;;38.80;17.25;;;;;;;-2.79;nan;102875.47;5105293;28;20100;-72
2022/03/19 05:51:41;;;;;;;34.33;15.80;;;;;;;-2.74;nan;102877.81;5098489;28;20036;-71
2022/03/19 05:54:07;;;;;;;33.80;16.48;;;;;;;-2.59;nan;102889.09;5103371;28;20664;-71
2022/03/19 05:56:32;;;;;;;36.80;17.25;;;;;;;-2.62;nan;102877.19;5105086;28;20480;-72
2022/03/19 05:58:58;;;;;;;34.75;16.92;;;;;;;-2.53;nan;102875.91;5105002;28;20566;-71
2022/03/19 06:01:27;;;;;;;36.20;17.25;;;;;;;-2.45;nan;102878.91;5101351;28;20175;-72
2022/03/19 06:03:57;;;;;;;35.08;14.70;;;;;;;-2.28;nan;102885.78;5109706;28;20036;-70
2022/03/19 06:06:24;;;;;;;39.88;18.40;;;;;;;-2.19;nan;102887.91;5110663;28;20062;-70
2022/03/19 06:08:49;;;;;;;43.78;19.65;;;;;;;-1.97;nan;102895.34;5097391;28;20059;-70
2022/03/19 06:11:15;;;;;;;41.33;19.30;;;;;;;-1.81;nan;102891.97;5116860;28;20069;-70
2022/03/19 06:13:44;;;;;;;40.70;18.48;;;;;;;-1.84;nan;102876.63;5085608;28;20047;-71
2022/03/19 06:16:10;;;;;;;47.75;20.42;;;;;;;-1.67;nan;102898.97;5080982;28;20055;-71
2022/03/19 06:18:35;;;;;;;51.97;21.23;;;;;;;-1.62;nan;102890.06;5092006;28;20036;-74
2022/03/19 06:21:01;;;;;;;48.25;20.88;;;;;;;-1.64;nan;102885.88;5086901;28;20043;-73
2022/03/19 06:23:27;;;;;;;42.00;18.75;;;;;;;-1.58;nan;102886.41;5112439;28;20027;-74
2022/03/19 06:25:53;;;;;;;42.97;18.75;;;;;;;-1.45;nan;102898.63;5113422;28;20837;-74
2022/03/19 06:28:19;;;;;;;48.03;19.95;;;;;;;-1.44;nan;102892.53;5103071;28;20143;-72
2022/03/19 06:30:45;;;;;;;50.22;21.27;;;;;;;-1.35;nan;102892.03;5121972;28;20035;-74
2022/03/19 06:33:12;;;;;;;39.85;19.25;;;;;;;-1.19;nan;102904.94;5107737;28;20513;-74
2022/03/19 06:38:25;;;;;;;41.13;19.75;;;;;;;-1.11;nan;102889.81;5107657;28;20063;-72
2022/03/19 06:40:50;;;;;;;43.00;19.90;;;;;;;-0.89;nan;102904.94;5114710;28;20046;-72
2022/03/19 06:43:16;;;;;;;41.40;19.52;;;;;;;-0.84;nan;102897.75;5116277;28;20397;-72
2022/03/19 06:45:42;;;;;;;45.13;20.73;;;;;;;-0.78;nan;102894.00;5092223;28;20036;-70
2022/03/19 06:48:07;;;;;;;40.05;18.83;;;;;;;-0.69;nan;102896.06;5097625;28;20076;-70
2022/03/19 06:50:33;;;;;;;45.80;19.30;;;;;;;-0.54;nan;102908.06;5088103;28;20469;-70
2022/03/19 06:52:59;;;;;;;39.92;19.17;;;;;;;-0.47;nan;102900.78;5082291;28;20090;-69
2022/03/19 06:55:24;;;;;;;36.05;17.45;;;;;;;-0.41;nan;102894.41;5093105;28;20031;-71
2022/03/19 06:57:50;;;;;;;35.42;15.65;;;;;;;-0.30;nan;102895.44;5109977;28;20031;-69
2022/03/19 07:00:16;;;;;;;36.03;17.00;;;;;;;-0.10;nan;102903.75;5082015;28;20466;-69
2022/03/19 07:02:49;;;;;;;36.65;17.60;;;;;;;-0.06;nan;102905.25;5089389;28;20035;-70
2022/03/19 07:05:25;;;;;;;38.47;18.08;;;;;;;0.18;nan;102905.50;5082448;28;20039;-71
2022/03/19 07:07:52;;;;;;;35.10;17.67;;;;;;;0.32;nan;102908.06;5091896;28;20112;-70
2022/03/19 07:10:19;;;;;;;34.60;17.33;;;;;;;0.25;nan;102877.47;5083755;28;20028;-71
2022/03/19 07:12:45;;;;;;;38.28;16.92;;;;;;;0.52;nan;102899.03;5095401;28;20055;-70
2022/03/19 07:15:16;;;;;;;40.55;16.23;;;;;;;0.59;nan;102897.72;5088181;28;20443;-72
2022/03/19 07:17:43;;;;;;;28.27;13.73;;;;;;;0.86;nan;102917.63;5107180;28;20101;-70
2022/03/19 07:20:10;;;;;;;30.65;15.10;;;;;;;0.98;nan;102913.41;5093723;28;20044;-70
2022/03/19 07:22:50;;;;;;;29.25;13.18;;;;;;;1.05;nan;102907.72;5102616;28;20028;-71
2022/03/19 07:25:17;;;;;;;27.55;13.75;;;;;;;1.18;nan;102909.53;5100750;28;20067;-71
2022/03/19 07:27:43;;;;;;;25.13;12.65;;;;;;;1.21;nan;102898.94;5094283;28;20523;-73
2022/03/19 07:30:10;;;;;;;27.25;13.00;;;;;;;1.31;nan;102906.94;5105114;28;20040;-71
2022/03/19 07:32:35;;;;;;;22.95;12.20;;;;;;;1.41;nan;102908.81;5096059;28;20459;-73
2022/03/19 07:35:01;;;;;;;30.35;12.82;;;;;;;1.51;nan;102911.63;5102965;28;20119;-72
2022/03/19 07:37:29;;;;;;;22.38;12.15;;;;;;;1.63;nan;102913.41;5094044;28;20032;-70
2022/03/19 07:39:58;;;;;;;20.40;10.55;;;;;;;1.61;nan;102902.28;5098711;28;20084;-71
2022/03/19 07:42:24;;;;;;;21.90;11.10;;;;;;;1.70;nan;102903.44;5086500;28;20036;-71
2022/03/19 07:44:49;;;;;;;25.80;11.77;;;;;;;1.85;nan;102907.56;5101501;28;20031;-71
2022/03/19 07:47:15;;;;;;;26.85;12.30;;;;;;;1.92;nan;102905.38;5080326;28;20713;-71
2022/03/19 07:49:40;;;;;;;27.15;12.07;;;;;;;1.96;nan;102893.00;5107409;28;20531;-71
2022/03/19 07:52:08;;;;;;;25.55;12.25;;;;;;;2.04;nan;102891.53;5099677;28;20049;-72
2022/03/19 07:54:36;;;;;;;23.45;12.38;;;;;;;2.21;nan;102902.53;5097209;28;20039;-76
2022/03/19 07:57:03;;;;;;;25.88;12.27;;;;;;;2.30;nan;102902.69;5096096;28;20036;-72
2022/03/19 07:59:29;;;;;;;23.98;12.15;;;;;;;2.43;nan;102901.81;5101748;28;20451;-68
2022/03/19 08:01:54;;;;;;;23.42;11.07;;;;;;;2.49;nan;102896.16;5091545;28;20048;-69
2022/03/19 08:04:20;;;;;;;23.10;12.15;;;;;;;2.59;nan;102896.38;5092810;28;20032;-67
2022/03/19 08:06:45;;;;;;;24.80;12.30;;;;;;;2.71;nan;102908.47;5076359;28;20080;-69
2022/03/19 08:09:11;;;;;;;27.20;12.23;;;;;;;2.84;nan;102913.63;5100563;28;20164;-68
2022/03/19 08:11:38;;;;;;;24.55;12.00;;;;;;;2.83;nan;102891.97;5072352;28;20513;-67
2022/03/19 08:14:04;;;;;;;26.30;12.75;;;;;;;3.00;nan;102895.13;5106970;28;20171;-68
2022/03/19 08:16:30;;;;;;;27.85;12.15;;;;;;;3.06;nan;102898.06;5108357;28;20032;-68
2022/03/19 08:18:56;;;;;;;24.80;12.73;;;;;;;3.17;nan;102892.91;5087822;28;20119;-69
2022/03/19 08:21:21;;;;;;;22.05;12.05;;;;;;;3.22;nan;102883.94;5096750;28;20168;-67
2022/03/19 08:23:47;;;;;;;28.23;12.95;;;;;;;3.39;nan;102894.72;5083652;28;20024;-69
2022/03/19 08:26:13;;;;;;;25.55;12.82;;;;;;;3.54;nan;102902.31;5074556;28;20028;-69
2022/03/19 08:28:38;;;;;;;24.70;12.88;;;;;;;3.58;nan;102883.72;5101211;28;20513;-68
2022/03/19 08:31:04;;;;;;;25.85;13.02;;;;;;;3.79;nan;102901.28;5098674;28;20039;-68
2022/03/19 08:33:30;;;;;;;25.67;12.70;;;;;;;3.75;nan;102871.19;5103751;28;20537;-68
2022/03/19 08:35:55;;;;;;;28.50;12.82;;;;;;;3.96;nan;102895.59;5103383;28;20393;-72
2022/03/19 08:41:05;;;;;;;27.00;12.85;;;;;;;4.01;nan;102863.94;5100760;28;20393;-71
2022/03/19 08:43:30;;;;;;;25.00;12.27;;;;;;;4.25;nan;102877.63;5109541;28;20032;-72
2022/03/19 08:45:56;;;;;;;24.77;12.35;;;;;;;4.38;nan;102872.28;5102409;28;20047;-71
2022/03/19 08:48:22;;;;;;;25.90;11.93;;;;;;;4.50;nan;102875.66;5101822;28;20032;-72
2022/03/19 08:50:47;;;;;;;22.88;12.05;;;;;;;4.54;nan;102865.84;5099561;28;20032;-71
2022/03/19 08:53:13;;;;;;;27.65;12.20;;;;;;;4.72;nan;102861.75;5107631;28;20031;-73
2022/03/19 08:55:39;;;;;;;24.05;11.88;;;;;;;4.89;nan;102862.97;5100057;28;20050;-70
2022/03/19 08:58:05;;;;;;;20.85;11.50;;;;;;;5.01;nan;102858.50;5103962;28;20032;-70
2022/03/19 09:00:30;;;;;;;24.88;13.43;;;;;;;5.18;nan;102857.09;5108875;28;20027;-72
2022/03/19 09:02:56;;;;;;;24.05;12.30;;;;;;;5.26;nan;102850.25;5112527;28;20176;-70
2022/03/19 09:05:22;;;;;;;20.05;11.30;;;;;;;5.31;nan;102835.00;5103331;28;20028;-71
2022/03/19 09:07:48;;;;;;;23.58;12.13;;;;;;;5.49;nan;102858.78;5107792;28;20032;-70
2022/03/19 09:10:13;;;;;;;26.02;12.40;;;;;;;5.55;nan;102860.03;5111593;28;20541;-71
2022/03/19 09:12:39;;;;;;;21.17;11.43;;;;;;;5.57;nan;102844.22;5091644;28;20142;-71
2022/03/19 09:15:07;;;;;;;22.65;11.15;;;;;;;5.79;nan;102856.28;5086980;28;20042;-70
2022/03/19 09:17:33;;;;;;;23.23;12.40;;;;;;;5.69;nan;102828.31;5099647;28;20027;-70
2022/03/19 09:19:58;;;;;;;26.20;11.77;;;;;;;5.87;nan;102835.53;5092820;28;20053;-70
2022/03/19 09:22:24;;;;;;;22.27;11.45;;;;;;;5.97;nan;102842.47;5108507;28;20052;-70
2022/03/19 09:24:49;;;;;;;25.73;12.30;;;;;;;6.11;nan;102843.88;5073905;28;20036;-69
2022/03/19 09:27:14;;;;;;;25.90;11.55;;;;;;;6.14;nan;102851.44;5107934;28;20034;-69
2022/03/19 09:29:42;;;;;;;21.52;11.30;;;;;;;6.22;nan;102856.00;5106653;28;20032;-72
2022/03/19 09:32:09;;;;;;;21.98;11.43;;;;;;;6.24;nan;102854.06;5102219;28;20027;-69
2022/03/19 09:34:35;;;;;;;25.50;11.30;;;;;;;6.11;nan;102806.44;5106319;28;20078;-70
2022/03/19 09:37:01;;;;;;;25.00;13.13;;;;;;;6.50;nan;102850.94;5097555;28;20510;-69
2022/03/19 09:39:27;;;;;;;22.25;11.20;;;;;;;6.58;nan;102851.91;5093612;28;20036;-70
2022/03/19 09:41:53;;;;;;;23.77;11.15;;;;;;;6.56;nan;102838.13;5097549;28;20363;-68
2022/03/19 09:44:23;;;;;;;22.17;11.60;;;;;;;6.75;nan;102842.53;5095099;28;20481;-68
2022/03/19 09:46:49;;;;;;;19.15;10.70;;;;;;;6.87;nan;102837.13;5080443;28;20125;-69
2022/03/19 09:49:14;;;;;;;20.58;11.02;;;;;;;6.94;nan;102835.59;5101467;28;20139;-69
2022/03/19 09:51:40;;;;;;;22.10;11.57;;;;;;;7.10;nan;102846.31;5087896;28;20072;-69
2022/03/19 09:54:09;;;;;;;20.35;10.93;;;;;;;7.07;nan;102824.84;5112379;28;20039;-69
2022/03/19 09:56:36;;;;;;;19.92;10.82;;;;;;;7.17;nan;102830.88;5091882;28;20035;-69
2022/03/19 09:59:02;;;;;;;21.50;10.55;;;;;;;7.37;nan;102842.09;5098592;28;20028;-67
2022/03/19 10:01:31;;;;;;;20.70;11.25;;;;;;;7.49;nan;102835.72;5096528;28;20067;-68
2022/03/19 10:04:05;;;;;;;19.25;10.60;;;;;;;7.39;nan;102827.06;5108330;28;20032;-68
2022/03/19 10:09:23;;;;;;;18.48;11.13;;;;;;;7.32;nan;102829.44;5112494;28;20028;-68
2022/03/19 10:11:52;;;;;;;20.52;10.75;;;;;;;7.35;nan;102836.16;5105109;28;20040;-69
2022/03/19 10:14:23;;;;;;;21.38;11.73;;;;;;;7.57;nan;102832.38;5078883;28;20401;-69
2022/03/19 10:16:51;;;;;;;21.35;11.07;;;;;;;7.67;nan;102822.66;5102041;28;20057;-69
2022/03/19 10:19:17;;;;;;;21.05;11.07;;;;;;;7.72;nan;102825.69;5099932;28;20073;-69
2022/03/19 10:21:44;;;;;;;16.83;9.63;;;;;;;7.69;nan;102828.59;5096622;28;20434;-69
2022/03/19 10:24:28;;;;;;;17.98;9.95;;;;;;;7.68;nan;102837.41;5093335;28;20066;-69
2022/03/19 10:26:54;;;;;;;17.52;10.00;;;;;;;7.61;nan;102812.75;5073493;28;20489;-68
2022/03/19 10:29:30;;;;;;;16.17;8.95;;;;;;;7.71;nan;102831.06;5086525;28;20092;-68
2022/03/19 10:32:08;;;;;;;15.07;8.38;;;;;;;7.77;nan;102818.19;5096671;28;20040;-67
2022/03/19 10:34:35;;;;;;;18.73;9.85;;;;;;;7.76;nan;102816.56;5077169;28;20165;-69
2022/03/19 10:37:01;;;;;;;17.95;10.25;;;;;;;7.75;nan;102822.75;5099594;28;20039;-70
2022/03/19 10:39:29;;;;;;;17.45;9.93;;;;;;;7.80;nan;102819.69;5109576;28;20139;-68
2022/03/19 10:41:56;;;;;;;18.02;9.75;;;;;;;7.89;nan;102817.00;5095656;28;20032;-72
2022/03/19 10:44:27;;;;;;;15.73;9.50;;;;;;;8.07;nan;102810.97;5106353;28;20070;-68
2022/03/19 10:46:58;;;;;;;16.45;9.18;;;;;;;8.09;nan;102817.72;5104833;28;20080;-69
2022/03/19 10:49:26;;;;;;;15.10;8.88;;;;;;;8.14;nan;102809.41;5094411;28;20035;-67
2022/03/19 10:51:55;;;;;;;19.23;9.47;;;;;;;8.26;nan;102810.00;5087235;28;20518;-69
2022/03/19 10:54:22;;;;;;;19.45;9.93;;;;;;;8.31;nan;102805.97;5076924;28;20335;-68
2022/03/19 10:56:49;;;;;;;17.30;9.63;;;;;;;8.43;nan;102798.72;5094215;28;20723;-68
2022/03/19 10:59:15;;;;;;;17.48;9.43;;;;;;;8.59;nan;102794.56;5077380;28;20031;-69
2022/03/19 11:01:41;;;;;;;16.83;10.05;;;;;;;8.63;nan;102793.28;5077718;28;20056;-69
2022/03/19 11:04:11;;;;;;;17.77;9.65;;;;;;;8.73;nan;102788.75;5078666;28;20059;-65
2022/03/19 11:06:41;;;;;;;19.27;10.10;;;;;;;8.77;nan;102774.34;5079762;28;20040;-68
2022/03/19 11:09:10;;;;;;;19.10;10.10;;;;;;;8.91;nan;102778.22;5075431;28;20085;-67
2022/03/19 11:11:58;;;;;;;15.73;9.20;;;;;;;9.07;nan;102782.72;5081521;28;20035;-69
2022/03/19 11:14:27;;;;;;;16.67;9.40;;;;;;;9.16;nan;102773.91;5086803;28;20086;-68
2022/03/19 11:17:25;;;;;;;19.95;9.55;;;;;;;9.09;nan;102757.09;5087576;28;20043;-68
2022/03/19 11:20:02;;;;;;;16.27;9.25;;;;;;;9.20;nan;102761.28;5083044;28;20070;-67
2022/03/19 11:22:39;;;;;;;17.90;10.48;;;;;;;9.28;nan;102769.19;5082765;28;20036;-66
2022/03/19 11:25:29;;;;;;;20.48;9.82;;;;;;;9.43;nan;102764.16;5079224;28;20068;-69
2022/03/19 11:27:58;;;;;;;16.20;9.52;;;;;;;9.46;nan;102761.22;5085291;28;20131;-69
2022/03/19 11:30:41;;;;;;;18.33;9.77;;;;;;;9.30;nan;102743.56;5080251;28;21819;-69
2022/03/19 11:33:15;;;;;;;17.33;9.93;;;;;;;9.31;nan;102758.34;5074396;28;20510;-66
2022/03/19 11:35:46;;;;;;;18.35;10.23;;;;;;;9.21;nan;102744.50;5085301;28;20072;-66
2022/03/19 11:38:17;;;;;;;18.63;9.02;;;;;;;9.20;nan;102764.72;5087867;28;20044;-68
2022/03/19 11:40:53;;;;;;;16.77;10.15;;;;;;;9.15;nan;102752.03;5086844;28;20111;-67
2022/03/19 11:43:26;;;;;;;15.55;9.15;;;;;;;9.16;nan;102752.88;5071930;28;20028;-68
2022/03/19 11:46:07;;;;;;;19.33;9.80;;;;;;;9.19;nan;102743.84;5071095;28;20038;-67